• Join FlightAware (Why Join?)
  • Login
  • US Flag 
01:44PM EDT


 

Airport Tracker/Info


-or-


 

Live Flight TrackerFlight Track Log ✈ AWE131 ✈ 17-Apr-2013 ✈ KPHX - KLGB

Flight Track Log - Related Links

Times and Time Zones

All times are in EDT time to prevent confusion due to time zone crossing. See the AWE131 flight status page for this flight to view local times or setup timezone preferences in your user account.

Time Position Orientation Groundspeed Altitude Reporting Facility
EDT Latitude Longitude Course Direction KTS MPH feet Rate Location/Type
11:56PM 33.4333 -112.0333 273° West 149 171 2,200  Level Phoenix TRACON
11:57PM 33.4167 -112.0667 239° Southwest 180 207 3,000 2,100 Climbing Phoenix TRACON
11:58PM 33.3833 -112.1333 239° Southwest 252 290 5,800 2,820 Climbing Phoenix TRACON
11:59PM 33.4333 -112.3171 270° West  Level FlightAware Approximate
11:59PM 33.4000 -112.2333 281° West 278 320 9,000  Level Phoenix TRACON
12:00AM 33.4350 -112.4228 273° West  Level FlightAware Approximate
12:00AM 33.4014 -112.3208 271° West 295 339 11,000  Level Albuquerque Center
12:01AM 33.4393 -112.5284 273° West  Level FlightAware Approximate
12:01AM 33.4142 -112.4419 277° West 361 415 12,200  Level Albuquerque Center
12:02AM 33.4435 -112.6340 273° West  Level FlightAware Approximate
12:02AM 33.4314 -112.6044 277° West 414 476 15,400  Level Albuquerque Center
12:03AM 33.4428 -112.7200 277° West 368 423 21,000 3,360 Climbing Albuquerque Center
12:04AM 33.4544 -112.8158 278° West 309 356 22,300 480 Climbing Albuquerque Center
12:05AM 33.4725 -112.9208 282° West 317 365 22,000 120 Descending Albuquerque Center
12:06AM 33.4947 -113.0339 283° West 340 391 22,600 660 Climbing Albuquerque Center
12:07AM 33.5181 -113.1556 283° West 364 419 23,400 660 Climbing Albuquerque Center
12:08AM 33.5425 -113.2850 283° West 392 451 24,000 240 Climbing Albuquerque Center
12:09AM 33.5675 -113.4164 283° West 402 463 24,000  Level Albuquerque Center
12:10AM 33.5853 -113.5494 279° West 406 467 24,000  Level Albuquerque Center
12:11AM 33.6019 -113.7089 277° West 404 465 24,000  Level Albuquerque Center
12:12AM 33.6144 -113.8242 277° West 407 468 24,000  Level Albuquerque Center
12:13AM 33.6286 -113.9581 277° West 405 466 24,000  Level Albuquerque Center
12:14AM 33.6467 -114.1186 278° West 405 466 24,000  Level Albuquerque Center
12:15AM 33.6594 -114.2439 277° West 407 468 24,000 -60 Level Albuquerque Center
12:17AM 33.6775 -114.3931 278° West 411 473 23,900  Descending Los Angeles Center
12:18AM 33.6897 -114.5286 276° West 410 472 24,000  Climbing Los Angeles Center
12:19AM 33.7081 -114.6939 278° West 417 480 23,900  Descending Los Angeles Center
12:20AM 33.7211 -114.8311 277° West 416 479 24,000  Climbing Los Angeles Center
12:21AM 33.7353 -114.9686 277° West 418 481 24,000 -60 Level Los Angeles Center
12:22AM 33.7497 -115.1078 277° West 420 483 23,900  Descending Los Angeles Center
12:23AM 33.7631 -115.2456 277° West 418 481 24,000  Climbing Los Angeles Center
12:24AM 33.7764 -115.3847 277° West 419 482 24,000  Level Los Angeles Center
12:25AM 33.7886 -115.5250 276° West 424 488 24,000  Level Los Angeles Center
12:26AM 33.8019 -115.6625 277° West 419 482 24,000  Level Los Angeles Center
12:27AM 33.8167 -115.8297 276° West 422 486 24,000  Level Los Angeles Center
12:28AM 33.8311 -115.9722 277° West 430 495 24,000  Level Los Angeles Center
12:29AM 33.8436 -116.1142 276° West 430 495 24,000 -60 Level Los Angeles Center
12:30AM 33.8558 -116.2550 276° West 426 490 23,900 -1,320 Descending Los Angeles Center
12:31AM 33.8678 -116.3942 276° West 421 484 21,300 -2,700 Descending Los Angeles Center
12:32AM 33.8761 -116.5286 274° West 407 468 18,400 -3,060 Descending Los Angeles Center
12:33AM 33.8817 -116.6589 273° West 394 453 15,100 -2,220 Descending Los Angeles Center
12:34AM 33.8867 -116.7894 273° West 393 452 13,900 -1,560 Descending Los Angeles Center
12:35AM 33.8661 -116.9428 261° West 386 444 12,000 -1,500 Descending Los Angeles Center
12:36AM 33.8519 -117.0517 261° West 358 412 10,900 -1,200 Descending Los Angeles Center
12:37AM 33.8400 -117.1531 262° West 315 362 9,600 -1,380 Descending Los Angeles Center
12:38AM 33.8264 -117.2514 261° West 300 345 8,200 -840 Descending Los Angeles Center
12:39AM 33.8136 -117.3475 261° West 293 337 7,900 -180 Descending Los Angeles Center
12:40AM 33.8000 -117.4444 260° West 294 338 7,900 -60 Level Los Angeles Center
12:41AM 33.7881 -117.5408 262° West 291 335 7,800 -600 Descending Los Angeles Center
12:42AM 33.7833 -117.6333 267° West 257 296 6,800 -1,200 Descending Southern California TRACON
12:43AM 33.7833 -117.7167 270° West 241 277 5,600 -900 Descending Southern California TRACON
12:44AM 33.7667 -117.7833 253° West 222 255 5,200 -720 Descending Southern California TRACON
12:45AM 33.7667 -117.8500 270° West 205 236 4,300 -600 Descending Southern California TRACON
12:46AM 33.7667 -117.9167 270° West 190 219 4,000 -720 Descending Southern California TRACON
12:47AM 33.7667 -117.9833 270° West 192 221 2,900 -1,200 Descending Southern California TRACON
12:48AM 33.7667 -118.0333 270° West 183 211 1,700 -780 Descending Southern California TRACON
12:49AM 33.7667 -118.0833 270° West 140 161 1,400 -540 Descending Southern California TRACON
12:50AM 33.7833 -118.1167 301° West 126 145 700 -600 Descending Southern California TRACON
12:51AM 33.8167 -118.1500 320° Northwest 122 140 200 -540 Descending Southern California TRACON